createdAt,value
2018-12-03T00:01:31.978Z,60.63
2018-12-03T00:04:32.740Z,53.10
2018-12-03T00:07:01.700Z,61.97
2018-12-03T00:09:30.643Z,61.33
2018-12-03T00:11:59.599Z,64.90
2018-12-03T00:14:28.579Z,59.53
2018-12-03T00:16:57.567Z,65.87
2018-12-03T00:19:26.528Z,68.00
2018-12-03T00:21:55.471Z,63.57
2018-12-03T00:24:24.490Z,64.70
2018-12-03T00:26:53.481Z,64.47
2018-12-03T00:29:22.514Z,63.73
2018-12-03T00:31:51.496Z,60.67
2018-12-03T00:34:20.467Z,60.47
2018-12-03T00:36:49.484Z,59.30
2018-12-03T00:39:18.472Z,61.20
2018-12-03T00:41:47.471Z,52.83
2018-12-03T00:44:16.407Z,66.10
2018-12-03T00:46:45.344Z,61.63
2018-12-03T00:49:14.284Z,60.17
2018-12-03T00:51:43.419Z,64.10
2018-12-03T00:54:12.352Z,69.70
2018-12-03T00:56:41.336Z,58.20
2018-12-03T00:59:10.421Z,64.40
2018-12-03T01:01:39.429Z,61.70
2018-12-03T01:04:08.454Z,68.20
2018-12-03T01:06:37.521Z,59.87
2018-12-03T01:09:08.959Z,61.17
2018-12-03T01:11:38.165Z,65.33
2018-12-03T01:14:07.227Z,63.90
2018-12-03T01:16:36.182Z,63.20
2018-12-03T01:19:05.261Z,59.37
2018-12-03T01:21:34.208Z,60.73
2018-12-03T01:24:03.185Z,61.93
2018-12-03T01:26:32.152Z,57.80
2018-12-03T01:29:01.086Z,62.20
2018-12-03T01:31:30.002Z,62.93
2018-12-03T01:33:58.981Z,61.63
2018-12-03T01:36:28.000Z,68.87
2018-12-03T01:38:57.002Z,62.27
2018-12-03T01:41:26.059Z,67.60
2018-12-03T01:43:55.023Z,65.07
2018-12-03T01:46:23.950Z,60.37
2018-12-03T01:48:52.896Z,61.53
2018-12-03T01:51:21.950Z,62.60
2018-12-03T01:53:51.033Z,60.07
2018-12-03T01:56:19.982Z,61.03
2018-12-03T01:58:48.972Z,65.37
2018-12-03T02:01:17.910Z,71.43
2018-12-03T02:03:46.865Z,61.40
2018-12-03T02:06:15.805Z,62.80
2018-12-03T02:08:44.776Z,72.27
2018-12-03T02:11:13.816Z,65.30
2018-12-03T02:13:42.872Z,66.43
2018-12-03T02:16:11.886Z,65.07
2018-12-03T02:18:40.846Z,64.60
2018-12-03T02:21:09.858Z,65.00
2018-12-03T02:23:38.814Z,64.37
2018-12-03T02:26:07.770Z,62.17
2018-12-03T02:28:36.732Z,66.10
2018-12-03T02:31:06.059Z,61.83
2018-12-03T02:33:35.078Z,57.77
2018-12-03T02:36:04.090Z,66.53
2018-12-03T02:38:33.066Z,65.63
2018-12-03T02:41:02.140Z,63.10
2018-12-03T02:43:31.203Z,63.20
2018-12-03T02:46:00.278Z,74.10
2018-12-03T02:48:29.393Z,60.10
2018-12-03T02:50:58.526Z,63.93
2018-12-03T02:53:27.486Z,65.17
2018-12-03T02:55:56.576Z,68.77
2018-12-03T02:58:25.490Z,69.33
2018-12-03T03:00:54.426Z,68.83
2018-12-03T03:03:23.453Z,62.27
2018-12-03T03:05:52.382Z,68.30
2018-12-03T03:08:21.399Z,60.90
2018-12-03T03:10:50.398Z,66.87
2018-12-03T03:13:19.356Z,62.53
2018-12-03T03:15:48.293Z,62.43
2018-12-03T03:18:17.294Z,69.43
2018-12-03T03:20:46.244Z,66.77
2018-12-03T03:23:15.327Z,72.73
2018-12-03T03:25:44.364Z,68.03
2018-12-03T03:28:13.389Z,67.57
2018-12-03T03:30:42.411Z,68.63
2018-12-03T03:33:11.358Z,69.90
2018-12-03T03:35:40.333Z,78.43
2018-12-03T03:38:09.306Z,67.47
2018-12-03T03:40:38.248Z,69.43
2018-12-03T03:43:07.527Z,69.20
2018-12-03T03:45:36.471Z,74.87
2018-12-03T03:48:05.824Z,73.97
2018-12-03T03:50:34.893Z,77.57
2018-12-03T03:53:03.962Z,75.13
2018-12-03T03:55:32.948Z,77.00
2018-12-03T03:58:03.820Z,75.90
2018-12-03T04:00:32.760Z,78.63
2018-12-03T04:03:01.873Z,79.53
2018-12-03T04:05:30.789Z,82.17
2018-12-03T04:07:59.716Z,80.40
2018-12-03T04:10:28.621Z,82.27
2018-12-03T04:12:57.527Z,80.63
2018-12-03T04:15:26.419Z,82.23
2018-12-03T04:17:55.368Z,77.93
2018-12-03T04:20:24.307Z,77.83
2018-12-03T04:22:54.601Z,81.10
2018-12-03T04:25:23.772Z,72.13
2018-12-03T04:27:52.767Z,71.90
2018-12-03T04:30:22.753Z,81.17
2018-12-03T04:32:52.780Z,76.53
2018-12-03T04:35:22.249Z,74.40
2018-12-03T04:37:51.370Z,82.67
2018-12-03T04:40:20.421Z,71.63
2018-12-03T04:42:49.446Z,74.90
2018-12-03T04:45:19.121Z,74.77
2018-12-03T04:47:50.967Z,81.73
2018-12-03T04:50:21.889Z,79.10
2018-12-03T04:52:50.874Z,71.57
2018-12-03T04:55:20.916Z,80.00
2018-12-03T04:57:50.199Z,79.37
2018-12-03T05:00:20.315Z,76.30
2018-12-03T05:02:50.818Z,69.20
2018-12-03T05:05:20.079Z,77.90
2018-12-03T05:07:49.125Z,83.77
2018-12-03T05:10:19.368Z,81.57
2018-12-03T05:12:49.833Z,85.37
2018-12-03T05:15:18.866Z,84.97
2018-12-03T05:17:47.877Z,80.27
2018-12-03T05:20:19.336Z,84.57
2018-12-03T05:22:48.304Z,87.53
2018-12-03T05:25:19.451Z,83.23
2018-12-03T05:27:47.079Z,77.83
2018-12-03T05:30:17.125Z,89.80
2018-12-03T05:32:46.888Z,88.13
2018-12-03T05:35:17.467Z,87.20
2018-12-03T05:37:46.481Z,88.07
2018-12-03T05:40:17.684Z,86.67
2018-12-03T05:42:46.872Z,82.50
2018-12-03T05:45:15.897Z,91.47
2018-12-03T05:47:44.894Z,96.27
2018-12-03T05:50:15.626Z,100.00
2018-12-03T05:52:45.839Z,95.03
2018-12-03T05:55:15.133Z,89.20
2018-12-03T05:57:44.611Z,97.10
2018-12-03T06:00:19.259Z,90.63
2018-12-03T06:02:48.211Z,93.37
2018-12-03T06:05:17.271Z,96.30
2018-12-03T06:07:46.279Z,107.17
2018-12-03T06:10:19.980Z,100.20
2018-12-03T06:12:48.979Z,103.30
2018-12-03T06:15:19.040Z,99.30
2018-12-03T06:17:49.189Z,90.10
2018-12-03T06:20:19.040Z,101.83
2018-12-03T06:22:48.838Z,108.57
2018-12-03T06:25:19.110Z,97.37
2018-12-03T06:27:48.160Z,107.10
2018-12-03T06:30:19.547Z,99.57
2018-12-03T06:32:48.469Z,103.03
2018-12-03T06:35:19.169Z,109.63
2018-12-03T06:37:48.360Z,90.00
2018-12-03T06:40:22.649Z,95.97
2018-12-03T06:42:51.568Z,96.73
2018-12-03T06:45:21.530Z,98.40
2018-12-03T06:47:53.724Z,104.33
2018-12-03T06:50:22.716Z,91.17
2018-12-03T06:52:51.609Z,91.63
2018-12-03T06:55:20.552Z,105.30
2018-12-03T06:57:49.504Z,99.60
2018-12-03T07:00:20.066Z,107.27
2018-12-03T07:02:48.973Z,94.47
2018-12-03T07:05:17.890Z,92.80
2018-12-03T07:07:48.006Z,96.70
2018-12-03T07:10:18.927Z,98.60
2018-12-03T07:12:49.369Z,100.67
2018-12-03T07:15:19.787Z,101.97
2018-12-03T07:17:51.161Z,116.77
2018-12-03T07:20:20.125Z,105.33
2018-12-03T07:22:49.092Z,107.30
2018-12-03T07:25:18.018Z,115.73
2018-12-03T07:27:46.953Z,104.30
2018-12-03T07:30:18.158Z,104.00
2018-12-03T07:32:48.080Z,95.87
2018-12-03T07:35:17.529Z,89.97
2018-12-03T07:37:46.575Z,99.07
2018-12-03T07:40:15.508Z,104.50
2018-12-03T07:42:44.421Z,104.20
2018-12-03T07:45:16.405Z,98.97
2018-12-03T07:47:45.399Z,95.27
2018-12-03T07:50:16.093Z,102.33
2018-12-03T07:52:45.059Z,105.57
2018-12-03T07:55:17.122Z,104.63
2018-12-03T07:58:19.738Z,101.47
2018-12-03T08:00:51.333Z,99.30
2018-12-03T08:03:20.298Z,92.23
2018-12-03T08:05:49.209Z,108.37
2018-12-03T08:08:18.161Z,104.80
2018-12-03T08:10:52.220Z,98.03
2018-12-03T08:13:21.405Z,91.73
2018-12-03T08:15:50.284Z,97.53
2018-12-03T08:18:20.813Z,97.47
2018-12-03T08:20:56.045Z,100.23
2018-12-03T08:23:33.149Z,99.77
2018-12-03T08:26:02.336Z,81.73
2018-12-03T08:28:31.491Z,88.93
2018-12-03T08:31:00.432Z,89.43
2018-12-03T08:33:29.389Z,92.63
2018-12-03T08:35:58.332Z,99.40
2018-12-03T08:38:27.250Z,88.97
2018-12-03T08:40:56.192Z,77.80
2018-12-03T08:43:25.090Z,88.53
2018-12-03T08:45:58.604Z,82.63
2018-12-03T08:48:28.949Z,92.67
2018-12-03T08:50:57.858Z,85.73
2018-12-03T08:53:26.809Z,91.30
2018-12-03T08:55:55.712Z,93.67
2018-12-03T08:58:24.633Z,87.57
2018-12-03T09:00:53.631Z,84.17
2018-12-03T09:03:25.286Z,93.37
2018-12-03T09:05:54.779Z,83.33
2018-12-03T09:08:23.741Z,77.20
2018-12-03T09:10:53.021Z,77.67
2018-12-03T09:13:23.292Z,88.30
2018-12-03T09:15:58.648Z,85.17
2018-12-03T09:18:42.298Z,78.70
2018-12-03T09:21:15.494Z,77.70
2018-12-03T09:23:45.885Z,81.77
2018-12-03T09:26:15.449Z,76.37
2018-12-03T09:28:44.381Z,80.43
2018-12-03T09:31:18.111Z,78.97
2018-12-03T09:33:55.324Z,82.67
2018-12-03T09:36:24.593Z,85.93
2018-12-03T09:39:01.932Z,77.00
2018-12-03T09:41:30.914Z,75.03
2018-12-03T09:43:59.847Z,78.90
2018-12-03T09:46:28.783Z,73.93
2018-12-03T09:48:58.825Z,75.67
2018-12-03T09:51:31.477Z,74.90
2018-12-03T09:54:00.711Z,77.10
2018-12-03T09:56:34.749Z,75.47
2018-12-03T09:59:10.254Z,73.03
2018-12-03T10:01:39.318Z,65.90
2018-12-03T10:04:16.233Z,62.70
2018-12-03T10:06:45.129Z,63.37
2018-12-03T10:09:14.165Z,62.57
2018-12-03T10:11:43.135Z,59.43
2018-12-03T10:14:15.018Z,68.20
2018-12-03T10:16:41.815Z,64.13
2018-12-03T10:19:10.756Z,68.37
2018-12-03T10:21:39.789Z,68.27
2018-12-03T10:24:13.031Z,67.23
2018-12-03T10:26:42.022Z,64.10
2018-12-03T10:29:15.764Z,63.33
2018-12-03T10:31:44.847Z,63.10
2018-12-03T10:34:17.757Z,62.23
2018-12-03T10:36:54.541Z,61.00
2018-12-03T10:39:25.845Z,63.83
2018-12-03T10:42:01.487Z,55.87
2018-12-03T10:44:30.450Z,58.23
2018-12-03T10:46:59.445Z,55.40
2018-12-03T10:49:28.356Z,55.23
2018-12-03T10:51:57.327Z,57.27
2018-12-03T10:54:26.243Z,56.07
2018-12-03T10:56:55.245Z,61.20
2018-12-03T10:59:24.220Z,56.10
2018-12-03T11:01:59.375Z,52.40
2018-12-03T11:04:38.644Z,58.87
2018-12-03T11:07:11.585Z,52.77
2018-12-03T11:09:40.559Z,50.27
2018-12-03T11:12:09.533Z,50.20
2018-12-03T11:14:38.518Z,53.57
2018-12-03T11:17:08.261Z,50.20
2018-12-03T11:19:37.208Z,55.47
2018-12-03T11:22:06.713Z,56.23
2018-12-03T11:24:35.654Z,60.73
2018-12-03T11:27:04.749Z,53.17
2018-12-03T11:29:40.104Z,58.40
2018-12-03T11:32:09.095Z,56.67
2018-12-03T11:34:37.999Z,57.90
2018-12-03T11:37:12.641Z,50.13
2018-12-03T11:39:51.235Z,58.73
2018-12-03T11:42:20.209Z,57.87
2018-12-03T11:44:49.147Z,52.07
2018-12-03T11:47:18.097Z,53.00
2018-12-03T11:49:47.035Z,52.83
2018-12-03T11:52:15.933Z,54.10
2018-12-03T11:54:44.872Z,52.87
2018-12-03T11:57:13.809Z,59.83
2018-12-03T11:59:42.712Z,53.07
2018-12-03T12:02:11.764Z,61.33
2018-12-03T12:04:40.688Z,52.87
2018-12-03T12:07:09.601Z,64.00
2018-12-03T12:09:38.534Z,58.70
2018-12-03T12:12:07.574Z,56.57
2018-12-03T12:14:36.460Z,58.77
2018-12-03T12:17:05.713Z,55.57
2018-12-03T12:19:34.626Z,63.80
2018-12-03T12:22:03.588Z,60.80
2018-12-03T12:24:32.703Z,57.43
2018-12-03T12:27:01.804Z,53.63
2018-12-03T12:29:30.722Z,55.40
2018-12-03T12:31:59.623Z,55.63
2018-12-03T12:34:28.620Z,48.90
2018-12-03T12:36:57.556Z,57.97
2018-12-03T12:39:26.481Z,55.53
2018-12-03T12:41:55.462Z,58.17
2018-12-03T12:44:24.364Z,60.00
2018-12-03T12:46:53.631Z,65.67
2018-12-03T12:49:22.593Z,54.77
2018-12-03T12:51:51.784Z,54.70
2018-12-03T12:54:20.719Z,54.90
2018-12-03T12:56:49.642Z,54.10
2018-12-03T12:59:18.540Z,51.87
2018-12-03T13:01:47.538Z,49.03
2018-12-03T13:04:16.728Z,55.37
2018-12-03T13:06:45.651Z,53.90
2018-12-03T13:09:14.553Z,52.40
2018-12-03T13:11:43.531Z,51.67
2018-12-03T13:14:13.800Z,55.73
2018-12-03T13:16:42.716Z,62.40
2018-12-03T13:19:11.808Z,53.07
2018-12-03T13:21:40.713Z,59.10
2018-12-03T13:24:09.689Z,64.13
2018-12-03T13:26:40.999Z,63.23
2018-12-03T13:29:09.955Z,52.40
2018-12-03T13:31:38.882Z,56.97
2018-12-03T13:34:08.820Z,60.90
2018-12-03T13:36:37.806Z,63.90
2018-12-03T13:39:10.008Z,77.83
2018-12-03T13:41:38.943Z,61.00
2018-12-03T13:44:08.779Z,92.10
2018-12-03T13:46:37.752Z,94.80
2018-12-03T13:49:07.765Z,76.50
2018-12-03T13:51:36.712Z,78.03
2018-12-03T13:54:05.968Z,64.53
2018-12-03T13:56:35.005Z,75.47
2018-12-03T13:59:04.529Z,68.30
2018-12-03T14:01:33.504Z,65.90
2018-12-03T14:04:07.613Z,64.50
2018-12-03T14:06:42.504Z,63.93
2018-12-03T14:12:27.420Z,63.37
2018-12-03T14:15:16.380Z,63.27
2018-12-03T14:17:50.956Z,71.60
2018-12-03T14:20:21.395Z,74.67
2018-12-03T14:22:57.088Z,70.90
2018-12-03T14:25:26.076Z,67.33
2018-12-03T14:27:55.038Z,78.20
2018-12-03T14:30:24.050Z,88.13
2018-12-03T14:32:53.038Z,74.43
2018-12-03T14:35:21.991Z,82.33
2018-12-03T14:37:51.077Z,87.53
2018-12-03T14:40:20.182Z,94.63
2018-12-03T14:42:49.374Z,91.13
2018-12-03T14:45:18.615Z,89.20
2018-12-03T14:47:47.509Z,87.73
2018-12-03T14:50:16.503Z,91.33
2018-12-03T14:52:45.595Z,88.27
2018-12-03T14:55:14.678Z,90.57
2018-12-03T14:57:43.699Z,91.40
2018-12-03T15:00:15.442Z,84.93
2018-12-03T15:02:44.727Z,89.63
2018-12-03T15:05:13.802Z,82.97
2018-12-03T15:07:43.094Z,98.40
2018-12-03T15:10:12.098Z,98.67
2018-12-03T15:12:41.820Z,100.17
2018-12-03T15:15:11.690Z,88.47
2018-12-03T15:17:42.549Z,115.13
2018-12-03T15:20:12.287Z,117.87
2018-12-03T15:22:41.417Z,117.83
2018-12-03T15:25:12.590Z,127.70
2018-12-03T15:27:41.721Z,129.23
2018-12-03T15:30:12.416Z,133.70
2018-12-03T15:32:41.390Z,118.37
2018-12-03T15:35:11.317Z,135.40
2018-12-03T15:37:40.645Z,136.97
2018-12-03T15:40:12.941Z,141.03
2018-12-03T15:42:42.024Z,143.13
2018-12-03T15:45:12.698Z,128.73
2018-12-03T15:47:42.428Z,135.70
2018-12-03T15:50:11.590Z,137.50
2018-12-03T15:52:40.578Z,138.70
2018-12-03T15:55:09.768Z,141.70
2018-12-03T15:57:38.843Z,137.77
2018-12-03T16:00:11.629Z,121.17
2018-12-03T16:02:40.688Z,124.07
2018-12-03T16:05:12.704Z,117.40
2018-12-03T16:07:41.751Z,114.83
2018-12-03T16:10:12.967Z,111.70
2018-12-03T16:12:42.481Z,121.63
2018-12-03T16:15:11.554Z,126.23
2018-12-03T16:17:41.991Z,140.90
2018-12-03T16:20:11.575Z,136.83
2018-12-03T16:22:40.516Z,144.67
2018-12-03T16:25:09.696Z,138.13
2018-12-03T16:27:38.705Z,133.60
2018-12-03T16:30:12.957Z,119.93
2018-12-03T16:32:41.919Z,126.17
2018-12-03T16:35:11.911Z,123.50
2018-12-03T16:37:41.708Z,130.93
2018-12-03T16:40:53.119Z,123.77
2018-12-03T16:43:22.842Z,119.47
2018-12-03T16:45:51.796Z,126.83
2018-12-03T16:48:21.386Z,126.07
2018-12-03T16:50:50.435Z,118.47
2018-12-03T16:53:19.655Z,110.03
2018-12-03T16:55:48.632Z,105.63
2018-12-03T16:58:18.442Z,105.93
2018-12-03T17:01:00.129Z,102.73
2018-12-03T17:03:29.637Z,104.30
2018-12-03T17:05:58.608Z,103.57
2018-12-03T17:08:27.752Z,106.87
2018-12-03T17:10:56.923Z,101.10
2018-12-03T17:13:26.115Z,114.80
2018-12-03T17:15:55.049Z,207.20
2018-12-03T17:18:27.198Z,163.07
2018-12-03T17:21:08.155Z,131.20
2018-12-03T17:23:48.239Z,110.60
2018-12-03T17:26:17.309Z,115.30
2018-12-03T17:28:46.236Z,120.17
2018-12-03T17:31:18.590Z,124.00
2018-12-03T17:33:48.400Z,124.67
2018-12-03T17:36:17.446Z,128.87
2018-12-03T17:38:46.603Z,110.83
2018-12-03T17:41:15.618Z,109.80
2018-12-03T17:43:45.355Z,124.37
2018-12-03T17:46:14.484Z,111.50
2018-12-03T17:48:43.591Z,115.60
2018-12-03T17:51:12.740Z,104.03
2018-12-03T17:53:41.670Z,100.93
2018-12-03T17:56:10.568Z,131.23
2018-12-03T17:58:39.704Z,138.57
2018-12-03T18:01:08.855Z,126.73
2018-12-03T18:03:37.873Z,144.17
2018-12-03T18:06:06.867Z,114.13
2018-12-03T18:08:35.816Z,126.77
2018-12-03T18:11:05.839Z,130.10
2018-12-03T18:13:42.691Z,114.90
2018-12-03T18:16:19.215Z,146.50
2018-12-03T18:18:48.300Z,174.73
2018-12-03T18:21:17.230Z,145.57
2018-12-03T18:23:46.342Z,124.60
2018-12-03T18:26:15.405Z,115.77
2018-12-03T18:28:44.459Z,120.73
2018-12-03T18:31:14.518Z,119.53
2018-12-03T18:33:45.310Z,126.03
2018-12-03T18:36:14.393Z,132.80
2018-12-03T18:38:46.835Z,134.93
2018-12-03T18:41:15.917Z,131.20
2018-12-03T18:43:45.814Z,132.70
2018-12-03T18:46:19.422Z,118.93
2018-12-03T18:48:51.334Z,131.17
2018-12-03T18:51:20.317Z,129.57
2018-12-03T18:53:49.665Z,128.17
2018-12-03T18:56:18.905Z,128.97
2018-12-03T18:58:53.182Z,120.93
2018-12-03T19:01:29.759Z,134.10
2018-12-03T19:04:33.065Z,150.00
2018-12-03T19:07:06.541Z,138.73
2018-12-03T19:09:42.837Z,123.43
2018-12-03T19:12:12.164Z,140.77
2018-12-03T19:14:42.170Z,128.43
2018-12-03T19:17:15.372Z,119.63
2018-12-03T19:19:56.550Z,119.90
2018-12-03T19:22:39.417Z,119.97
2018-12-03T19:25:15.865Z,125.80
2018-12-03T19:27:44.805Z,137.67
2018-12-03T19:30:15.299Z,128.87
2018-12-03T19:32:44.407Z,127.23
2018-12-03T19:35:14.443Z,123.77
2018-12-03T19:37:46.984Z,121.23
2018-12-03T19:40:19.990Z,122.90
2018-12-03T19:42:49.272Z,122.47
2018-12-03T19:45:18.460Z,111.50
2018-12-03T19:47:48.613Z,114.50
2018-12-03T19:50:17.638Z,110.27
2018-12-03T19:52:49.201Z,118.97
2018-12-03T19:55:18.447Z,110.83
2018-12-03T19:57:51.032Z,117.97
2018-12-03T20:00:20.043Z,103.77
2018-12-03T20:02:49.060Z,116.07
2018-12-03T20:05:19.312Z,112.17
2018-12-03T20:07:48.395Z,118.97
2018-12-03T20:10:17.633Z,114.40
2018-12-03T20:13:03.341Z,121.97
2018-12-03T20:15:32.473Z,118.40
2018-12-03T20:18:01.726Z,116.83
2018-12-03T20:20:42.754Z,123.03
2018-12-03T20:23:16.722Z,113.97
2018-12-03T20:27:08.984Z,109.13
2018-12-03T20:33:23.608Z,112.93
2018-12-03T20:36:21.743Z,111.47
2018-12-03T20:39:11.829Z,105.60
2018-12-03T20:41:50.404Z,107.87
2018-12-03T20:44:39.583Z,126.33
2018-12-03T20:47:25.380Z,101.73
2018-12-03T20:50:31.917Z,115.87
2018-12-03T20:53:12.495Z,123.13
2018-12-03T20:55:46.590Z,112.07
2018-12-03T20:58:24.475Z,117.87
2018-12-03T21:01:01.208Z,120.13
2018-12-03T21:03:38.027Z,120.73
2018-12-03T21:06:11.002Z,105.60
2018-12-03T21:08:43.931Z,115.90
2018-12-03T21:11:18.689Z,113.97
2018-12-03T21:14:00.359Z,108.97
2018-12-03T21:16:33.679Z,114.77
2018-12-03T21:19:10.776Z,114.87
2018-12-03T21:21:43.986Z,109.03
2018-12-03T21:24:17.601Z,104.67
2018-12-03T21:26:54.157Z,107.10
2018-12-03T21:29:32.516Z,116.30
2018-12-03T21:32:09.079Z,108.53
2018-12-03T21:34:41.924Z,107.40
2018-12-03T21:37:15.631Z,99.87
2018-12-03T21:39:52.182Z,99.57
2018-12-03T21:42:24.357Z,102.77
2018-12-03T21:44:56.083Z,99.33
2018-12-03T21:47:28.893Z,99.60
2018-12-03T21:50:05.887Z,109.10
2018-12-03T21:52:36.163Z,111.43
2018-12-03T21:55:09.131Z,120.07
2018-12-03T21:57:50.078Z,111.43
2018-12-03T22:00:27.176Z,116.73
2018-12-03T22:03:04.897Z,116.97
2018-12-03T22:05:43.107Z,101.17
2018-12-03T22:08:20.571Z,106.07
2018-12-03T22:10:54.561Z,98.73
2018-12-03T22:13:31.401Z,97.67
2018-12-03T22:16:08.563Z,89.90
2018-12-03T22:18:41.468Z,95.93
2018-12-03T22:21:14.195Z,102.80
2018-12-03T22:23:50.871Z,97.27
2018-12-03T22:26:24.687Z,91.63
2018-12-03T22:28:58.104Z,95.33
2018-12-03T22:31:30.953Z,97.10
2018-12-03T22:34:04.385Z,100.03
2018-12-03T22:36:36.824Z,92.30
2018-12-03T22:39:15.052Z,90.70
2018-12-03T22:41:48.518Z,95.70
2018-12-03T22:44:21.325Z,81.80
2018-12-03T22:46:54.646Z,96.87
2018-12-03T22:49:30.907Z,100.10
2018-12-03T22:52:08.817Z,97.30
2018-12-03T22:54:41.650Z,87.87
2018-12-03T22:57:18.282Z,89.93
2018-12-03T22:59:51.980Z,93.77
2018-12-03T23:02:24.830Z,92.60
2018-12-03T23:04:58.938Z,91.33
2018-12-03T23:07:32.747Z,103.87
2018-12-03T23:10:10.238Z,96.23
2018-12-03T23:12:44.274Z,98.20
2018-12-03T23:15:17.853Z,129.73
2018-12-03T23:17:51.763Z,119.50
2018-12-03T23:20:29.008Z,102.57
2018-12-03T23:23:05.922Z,99.30
2018-12-03T23:25:42.943Z,91.80
2018-12-03T23:28:17.063Z,97.83
2018-12-03T23:30:54.727Z,102.60
2018-12-03T23:33:28.149Z,106.80
2018-12-03T23:36:02.017Z,104.83
2018-12-03T23:38:34.357Z,95.43
2018-12-03T23:41:06.619Z,96.33
2018-12-03T23:43:40.361Z,99.27
2018-12-03T23:46:17.817Z,98.80
2018-12-03T23:48:48.802Z,107.93
2018-12-03T23:51:22.217Z,97.47
2018-12-03T23:53:59.942Z,98.57
2018-12-03T23:56:37.886Z,96.47
2018-12-03T23:59:11.482Z,86.57
